AirNav  
 
 289 users online  

M24 Dean Griffin Memorial Airport
Wiggins, Mississippi, USA


FAA INFORMATION EFFECTIVE 09 NOVEMBER 2017

Location

FAA Identifier: M24
Lat/Long: 30-50-34.7400N / 089-09-41.3400W
30-50.579000N / 089-09.689000W
30.8429833 / -89.1614833
(estimated)
Elevation: 273 ft. / 83 m (estimated)
Variation: 02E (1985)
From city: 1 mile W of WIGGINS, MS
Time zone: UTC -6 (UTC -5 during Daylight Saving Time)
Zip code: 39577

Airport Operations

Airport use: Open to the public
Control tower: no
ARTCC: HOUSTON CENTER
FSS: GREENWOOD FLIGHT SERVICE STATION
NOTAMs facility: GWO (NOTAM-D service available)
Attendance: 0800-1700
Wind indicator: lighted
Segmented circle: no
Lights: ACTVT MIRL RY 17/35 - CTAF. PAPI RY 17 & 35 OPER CONTINUOUSLY.
Beacon: white-green (lighted land airport)
Operates sunset to sunrise.

Airport Communications

CTAF/UNICOM: 122.8

Nearby radio navigation aids

VOR radial/distance  VOR name  Freq  Var
GPTr349/26.5GULFPORT VORTAC109.0002E
PCUr055/33.9PICAYUNE VOR/DME112.2005E
LBYr160/35.7EATON VORTAC110.6005E
GCVr241/38.0GREENE COUNTY VORTAC115.7005E

 
NDB name  Hdg/Dist  Freq  Var  ID
BOGALUSA094/36.235300WGVB --. ...- -...

Airport Services

Fuel available: 100LL
FUEL AVAILABLE 24/7 W/ C.C.
Parking: tiedowns
Airframe service: NONE
Bottled oxygen: NONE
Bulk oxygen: NONE

Runway Information

Runway 17/35

Dimensions: 3500 x 75 ft. / 1067 x 23 m
Surface: asphalt, in good condition
Weight bearing capacity: 
Single wheel: 20.0
Runway edge lights: medium intensity
Gradient: N
RUNWAY 17  RUNWAY 35
Latitude: 30-50.865667N30-50.292500N
Longitude: 089-09.729333W089-09.648833W
Elevation: 273.0 ft.244.8 ft.
Gradient: 0.6%0.8% UP
Traffic pattern: leftleft
Runway heading: 171 magnetic, 173 true351 magnetic, 353 true
Displaced threshold: 500 ft.no
Markings: basic, in good conditionbasic, in good condition
Visual slope indicator: 2-light PAPI on left2-light PAPI on left
Obstructions: 41 ft. tree, 1200 ft. from runway, 150 ft. left of centerline, 24:1 slope to clear
APPROACH SLOPE 36:1 TO THE DSPLCD THLD.
62 ft. trees, 1440 ft. from runway, 20:1 slope to clear

Airport Ownership and Management from official FAA records

Ownership: Publicly-owned
Owner: CITY OF WIGGINS-STONE CO
117 FIRST STREET
WIGGINS, MS 39577
Phone 601-928-7221
Manager: AIRPORT BOARD
P.O. BOX 219
WIGGINS, MS 39577
Phone 601-928-7221
MR. DURON HATTEN, SEC/TREAS OF ARPT BOARD.

Airport Operational Statistics

Aircraft based on the field: 10
Single engine airplanes: 9
Ultralights: 1
    
Aircraft operations: avg 35/day *
51% local general aviation
45% transient general aviation
4% military
* for 12-month period ending 05 April 2017

Instrument Procedures

There are no published instrument procedures at M24.

Some nearby airports with instrument procedures:

M13 - Poplarville-Pearl River County Airport (18 nm W)
KHBG - Hattiesburg Bobby L Chain Municipal Airport (26 nm N)
KGPT - Gulfport-Biloxi International Airport (27 nm S)
KBIX - Keesler Air Force Base (29 nm SE)
KHSA - Stennis International Airport (32 nm SW)
 
Loc | Ops | Rwys | IFR | FBO | Links
Com | Nav | Svcs | Stats | Notes


 
Area around M24 (Dean Griffin Memorial Airport)
 
Road maps at: MapQuest Bing Google
 
Aerial photo
No photo
 
Sectional chart

 
Airport distance calculator
Flying to Dean Griffin Memorial Airport? Find the distance to fly.

From to M24

Sunrise and sunset
Times for 22-Nov-2017
 Local
(UTC-6)
 Zulu
(UTC)
Morning civil twilight06:0412:04
Sunrise06:3012:30
Sunset16:5522:55
Evening civil twilight17:2123:21

Current date and time
Zulu (UTC)  22-Nov-2017 09:33:31
Local (UTC-6)  22-Nov-2017 03:33:31
 
METAR
KHBG 
26nm N 
220853Z AUTO 00000KT 10SM CLR 09/08 A3007 RMK AO2 SLP182 T00940083 55000
KGPT 
26nm S 
220853Z AUTO 34006KT 10SM CLR 13/09 A3002 RMK AO2 SLP166 T01330094 58002
KBIX 
29nm SE 
220856Z AUTO 01006KT 10SM CLR 13/09 A3002 RMK AO2 SLP169 T01330090 55002 CHINO RWY21 $
KHSA 
32nm SW 
220255Z 00000KT 10SM CLR 13/13 A3003
KPIB 
38nm N 
220856Z AUTO 34004KT 10SM CLR 08/06 A3008 RMK AO2 SLP184 T00780056 55000
KLUL 
38nm N 
220915Z AUTO 34004KT 10SM CLR 06/06 A3008 RMK AO2 T00580058
KPQL 
40nm SE 
220853Z AUTO 36005KT 10SM CLR 12/08 A3003 RMK AO2 SLP170 T01170083 55004
K0R0 
43nm NW 
220915Z AUTO 01003KT 10SM CLR 09/06 A3011 RMK AO2
KASD 
47nm SW 
220853Z AUTO 35004KT 10SM CLR 13/10 A3003 RMK AO2 SLP170 T01330100 50000
KMOB 
48nm E 
220856Z AUTO 36009KT 10SM CLR 13/06 A3003 RMK AO2 SLP168 T01280061 55001
TAF
KHBG 
26nm N 
220522Z 2206/2306 36003KT P6SM BKN250 FM221700 01010G17KT P6SM FEW250 FM230000 VRB03KT P6SM SKC
KGPT 
26nm S 
220520Z 2206/2306 01006KT P6SM SCT060 BKN200 FM221200 02010KT P6SM BKN110 BKN200 FM221500 02011KT P6SM FEW110 SCT200
KBIX 
29nm SE 
220200Z 2202/2308 03009KT 9999 BKN100 QNH2997INS BECMG 2209/2210 03012KT 9999 SCT100 QNH2999INS BECMG 2214/2215 03012G18KT 9999 FEW050 QNH3000INS BECMG 2302/2303 03009KT 9999 SKC QNH2999INS TX18/2221Z TN11/2212Z LAST NO AMDS AFT 2205 NEXT 2211
NOTAMs
Click for the latest NOTAMs
NOTAMs are issued by the DoD/FAA and will open in a separate window not controlled by AirNav.

 

 
 

FBO, Fuel Providers, and Aircraft Ground Support

  
 Business Name 
 
 Contact 
 
 Services / Description 
 
Fuel Prices
 
Comments
  
Dean Griffin Memorial Airport 601-928-6495
no information available

If you are affiliated with Dean Griffin Memorial Airport and would like to show here your services, contact info, web link, logo, and more, click here
100LL
SS $4.30 
 Updated 16-Aug-2017
 
   write
SS=Self service
Update Fuel Prices
 

Would you like to see your business listed on this page?

 If your business provides an interesting product or service to pilots, flight crews, aircraft, or users of the Dean Griffin Memorial Airport, you should consider listing it here.  To start the listing process, click on the button below
 
Add a business
 

Other Pages about Dean Griffin Memorial Airport

Update a link
 
Copyright © AirNav, LLC. All rights reserved. Privacy Policy  Contact